Hartford, Connecticut
Traffic Map
Current Weather Conditions
Hartford, Connecticut
Clear
Clear
58°
Feels Like: 58°
Wind Chill: 58° Ceiling: Unl
Heat Index: 58° Visibility: 10mi
Dew Point: 49° Wind: 3mph
Humidity: 72% Direction: 190° (S)
Pressure: 30.33in Gusts: 0mph
Raw Report DataKHFD 220053Z 19003KT 10SM CLR 14/09 A3033 RMK AO2 SLP269 T01440094
Traffic Incident Summary
Active as of:
Severity:
Category:
InformationThere was an issue retrieving the traffic information for this location. Please try a different location or try again shortly.
Advertisements